createdAt,value
2019-03-02T00:01:28.755Z,38.60
2019-03-02T00:02:56.751Z,40.03
2019-03-02T00:04:21.614Z,40.20
2019-03-02T00:05:47.254Z,39.13
2019-03-02T00:07:12.792Z,35.13
2019-03-02T00:08:38.559Z,41.60
2019-03-02T00:10:06.539Z,38.00
2019-03-02T00:11:31.455Z,36.67
2019-03-02T00:12:57.011Z,39.00
2019-03-02T00:14:22.525Z,34.83
2019-03-02T00:15:48.063Z,34.53
2019-03-02T00:17:15.590Z,37.50
2019-03-02T00:18:40.725Z,37.30
2019-03-02T00:20:09.507Z,44.93
2019-03-02T00:21:35.147Z,37.67
2019-03-02T00:23:00.683Z,38.53
2019-03-02T00:24:26.247Z,45.13
2019-03-02T00:25:51.894Z,43.73
2019-03-02T00:27:17.862Z,40.33
2019-03-02T00:28:44.578Z,41.53
2019-03-02T00:30:10.725Z,42.40
2019-03-02T00:31:36.253Z,40.10
2019-03-02T00:33:01.791Z,42.27
2019-03-02T00:34:28.706Z,40.97
2019-03-02T00:35:54.729Z,36.93
2019-03-02T00:37:20.254Z,47.27
2019-03-02T00:38:45.753Z,40.53
2019-03-02T00:40:11.506Z,38.00
2019-03-02T00:41:38.726Z,41.70
2019-03-02T00:43:04.542Z,52.97
2019-03-02T00:44:30.220Z,38.37
2019-03-02T00:45:57.314Z,40.60
2019-03-02T00:47:23.166Z,42.53
2019-03-02T00:48:48.662Z,38.50
2019-03-02T00:50:14.511Z,34.10
2019-03-02T00:51:42.678Z,37.17
2019-03-02T00:53:07.162Z,47.03
2019-03-02T00:54:32.662Z,38.50
2019-03-02T00:55:58.221Z,35.07
2019-03-02T00:57:23.849Z,37.63
2019-03-02T00:58:49.356Z,37.90
2019-03-02T01:00:16.276Z,37.53
2019-03-02T01:01:42.044Z,36.27
2019-03-02T01:03:07.626Z,40.53
2019-03-02T01:04:33.131Z,33.70
2019-03-02T01:05:58.736Z,36.33
2019-03-02T01:07:24.567Z,41.43
2019-03-02T01:08:50.163Z,41.27
2019-03-02T01:10:19.063Z,41.60
2019-03-02T01:11:43.106Z,31.33
2019-03-02T01:13:08.738Z,47.00
2019-03-02T01:14:34.322Z,33.53
2019-03-02T01:15:59.891Z,34.53
2019-03-02T01:17:26.983Z,36.90
2019-03-02T01:18:52.600Z,35.83
2019-03-02T01:20:18.448Z,37.73
2019-03-02T01:21:43.968Z,39.93
2019-03-02T01:23:09.468Z,36.53
2019-03-02T01:24:35.586Z,38.00
2019-03-02T01:26:02.228Z,35.40
2019-03-02T01:27:27.760Z,41.13
2019-03-02T01:28:53.231Z,37.60
2019-03-02T01:30:19.445Z,40.60
2019-03-02T01:31:44.980Z,36.40
2019-03-02T01:33:10.723Z,36.07
2019-03-02T01:34:38.726Z,34.13
2019-03-02T01:36:03.498Z,38.10
2019-03-02T01:37:29.102Z,33.20
2019-03-02T01:38:54.947Z,33.10
2019-03-02T01:40:20.517Z,33.53
2019-03-02T01:41:46.097Z,39.13
2019-03-02T01:43:11.616Z,41.43
2019-03-02T01:44:37.138Z,33.20
2019-03-02T01:46:03.314Z,35.93
2019-03-02T01:47:30.122Z,33.08
2019-03-02T01:48:58.701Z,33.60
2019-03-02T01:50:22.891Z,34.40
2019-03-02T01:51:48.532Z,35.40
2019-03-02T01:53:14.032Z,44.50
2019-03-02T01:54:39.565Z,36.95
2019-03-02T01:56:06.127Z,37.03
2019-03-02T01:57:32.504Z,31.50
2019-03-02T01:59:00.605Z,39.97
2019-03-02T02:00:28.791Z,31.83
2019-03-02T02:01:56.585Z,37.98
2019-03-02T02:03:21.538Z,35.73
2019-03-02T02:04:47.075Z,32.23
2019-03-02T02:06:12.683Z,37.43
2019-03-02T02:07:38.173Z,36.77
2019-03-02T02:09:05.625Z,32.93
2019-03-02T02:10:32.236Z,33.73
2019-03-02T02:11:57.887Z,34.00
2019-03-02T02:13:23.513Z,32.83
2019-03-02T02:14:50.937Z,35.50
2019-03-02T02:16:16.237Z,34.47
2019-03-02T02:17:41.791Z,39.90
2019-03-02T02:19:07.431Z,35.48
2019-03-02T02:20:32.952Z,36.50
2019-03-02T02:21:58.795Z,28.20
2019-03-02T02:23:25.814Z,25.90
2019-03-02T02:24:51.455Z,30.32
2019-03-02T02:26:16.973Z,41.10
2019-03-02T02:27:42.608Z,35.08
2019-03-02T02:29:09.527Z,39.35
2019-03-02T02:30:35.356Z,39.23
2019-03-02T02:32:00.862Z,37.47
2019-03-02T02:33:26.455Z,34.43
2019-03-02T02:34:56.387Z,38.37
2019-03-02T02:36:20.411Z,37.03
2019-03-02T02:37:47.395Z,34.90
2019-03-02T02:39:16.423Z,36.63
2019-03-02T02:40:41.912Z,25.27
2019-03-02T02:42:07.424Z,35.00
2019-03-02T02:43:33.078Z,37.23
2019-03-02T02:44:58.664Z,35.33
2019-03-02T02:46:27.510Z,36.07
2019-03-02T02:47:53.948Z,36.10
2019-03-02T02:49:18.514Z,39.85
2019-03-02T02:50:44.146Z,39.70
2019-03-02T02:52:09.651Z,41.70
2019-03-02T02:53:35.177Z,33.13
2019-03-02T02:55:02.305Z,33.23
2019-03-02T02:56:27.958Z,31.37
2019-03-02T02:57:53.734Z,31.60
2019-03-02T02:59:19.304Z,42.33
2019-03-02T03:00:44.925Z,31.13
2019-03-02T03:02:12.008Z,36.90
2019-03-02T03:03:37.887Z,31.95
2019-03-02T03:05:03.553Z,36.40
2019-03-02T03:06:32.682Z,38.85
2019-03-02T03:07:56.220Z,37.40
2019-03-02T03:09:45.259Z,31.27
2019-03-02T03:11:11.232Z,37.47
2019-03-02T03:12:36.761Z,43.10
2019-03-02T03:14:02.288Z,33.63
2019-03-02T03:15:36.004Z,37.17
2019-03-02T03:16:57.407Z,29.03
2019-03-02T03:18:22.935Z,27.37
2019-03-02T03:19:48.479Z,39.50
2019-03-02T03:21:14.091Z,27.13
2019-03-02T03:22:40.874Z,33.20
2019-03-02T03:24:06.984Z,29.82
2019-03-02T03:25:32.582Z,32.38
2019-03-02T03:26:58.144Z,32.00
2019-03-02T03:28:26.119Z,30.68
2019-03-02T03:29:51.336Z,25.90
2019-03-02T03:31:23.348Z,36.68
2019-03-02T03:32:54.902Z,29.87
2019-03-02T03:34:11.338Z,36.98
2019-03-02T03:35:36.889Z,31.73
2019-03-02T03:37:02.460Z,34.88
2019-03-02T03:38:29.248Z,31.90
2019-03-02T03:39:55.371Z,41.15
2019-03-02T03:41:20.927Z,35.05
2019-03-02T03:42:46.449Z,52.67
2019-03-02T03:44:11.982Z,49.50
2019-03-02T03:45:42.104Z,39.40
2019-03-02T03:47:04.854Z,59.17
2019-03-02T03:48:30.324Z,54.30
2019-03-02T03:49:55.955Z,80.22
2019-03-02T03:51:26.136Z,82.97
2019-03-02T03:52:50.277Z,81.45
2019-03-02T03:54:15.947Z,61.10
2019-03-02T03:55:41.486Z,80.25
2019-03-02T03:57:07.117Z,80.92
2019-03-02T03:58:35.073Z,83.37
2019-03-02T04:00:00.679Z,76.53
2019-03-02T04:01:26.504Z,66.90
2019-03-02T04:02:52.069Z,63.77
2019-03-02T04:04:18.073Z,67.10
2019-03-02T04:05:47.259Z,61.88
2019-03-02T04:07:10.839Z,60.12
2019-03-02T04:08:36.384Z,74.07
2019-03-02T04:10:01.856Z,81.63
2019-03-02T04:11:27.383Z,57.53
2019-03-02T04:12:52.922Z,60.08
2019-03-02T04:14:19.062Z,51.63
2019-03-02T04:15:45.775Z,59.63
2019-03-02T04:17:11.302Z,42.98
2019-03-02T04:19:04.757Z,55.05
2019-03-02T04:20:36.496Z,45.48
2019-03-02T04:22:06.559Z,58.33
2019-03-02T04:23:29.708Z,47.20
2019-03-02T04:24:55.215Z,52.08
2019-03-02T04:26:20.744Z,43.68
2019-03-02T04:27:53.156Z,43.23
2019-03-02T04:29:13.482Z,39.90
2019-03-02T04:30:39.148Z,26.50
2019-03-02T04:32:04.672Z,25.75
2019-03-02T04:33:30.157Z,29.27
2019-03-02T04:34:57.724Z,27.13
2019-03-02T04:36:23.082Z,30.05
2019-03-02T04:37:48.557Z,29.60
2019-03-02T04:39:15.044Z,31.77
2019-03-02T04:40:40.686Z,33.53
2019-03-02T04:42:06.282Z,25.60
2019-03-02T04:43:31.812Z,35.90
2019-03-02T04:44:57.289Z,30.97
2019-03-02T04:46:22.859Z,30.88
2019-03-02T04:47:48.347Z,32.73
2019-03-02T04:49:14.658Z,28.00
2019-03-02T04:50:40.953Z,22.77
2019-03-02T04:52:06.621Z,32.78
2019-03-02T04:53:32.146Z,32.10
2019-03-02T04:54:57.665Z,36.53
2019-03-02T04:56:24.189Z,33.88
2019-03-02T04:57:50.389Z,38.37
2019-03-02T04:59:18.702Z,38.33
2019-03-02T05:00:43.143Z,34.30
2019-03-02T05:02:08.872Z,35.15
2019-03-02T05:03:34.347Z,40.00
2019-03-02T05:04:59.862Z,40.23
2019-03-02T05:06:25.365Z,37.75
2019-03-02T05:07:50.853Z,37.40
2019-03-02T05:09:17.268Z,43.50
2019-03-02T05:10:43.442Z,31.20
2019-03-02T05:12:11.642Z,34.50
2019-03-02T05:13:36.090Z,39.83
2019-03-02T05:15:01.586Z,39.23
2019-03-02T05:16:28.857Z,45.50
2019-03-02T05:17:54.328Z,28.37
2019-03-02T05:19:19.915Z,22.90
2019-03-02T05:20:45.500Z,26.55
2019-03-02T05:22:11.043Z,30.17
2019-03-02T05:23:36.544Z,26.33
2019-03-02T05:25:02.055Z,28.30
2019-03-02T05:26:27.602Z,26.37
2019-03-02T05:27:53.127Z,20.40
2019-03-02T05:29:18.637Z,19.73
2019-03-02T05:30:44.159Z,21.25
2019-03-02T05:32:12.551Z,30.02
2019-03-02T05:33:37.075Z,27.37
2019-03-02T05:35:02.566Z,31.40
2019-03-02T05:36:28.192Z,29.10
2019-03-02T05:37:54.054Z,24.15
2019-03-02T05:39:19.653Z,23.95
2019-03-02T05:40:45.129Z,28.07
2019-03-02T05:42:13.606Z,23.77
2019-03-02T05:43:37.815Z,27.42
2019-03-02T05:45:03.342Z,22.20
2019-03-02T05:46:28.835Z,30.15
2019-03-02T05:47:54.374Z,29.05
2019-03-02T05:49:19.884Z,26.65
2019-03-02T05:50:45.390Z,29.15
2019-03-02T05:52:10.923Z,21.90
2019-03-02T05:53:36.432Z,24.90
2019-03-02T05:55:01.964Z,32.80
2019-03-02T05:56:29.310Z,29.23
2019-03-02T05:57:54.658Z,25.27
2019-03-02T05:59:22.873Z,23.65
2019-03-02T06:00:51.237Z,25.17
2019-03-02T06:02:17.316Z,29.20
2019-03-02T06:03:46.067Z,26.37
2019-03-02T06:05:11.090Z,22.13
2019-03-02T06:06:36.600Z,24.87
2019-03-02T06:08:02.163Z,22.70
2019-03-02T06:09:27.674Z,24.00
2019-03-02T06:10:53.206Z,20.72
2019-03-02T06:12:18.693Z,19.45
2019-03-02T06:13:44.254Z,25.35
2019-03-02T06:15:10.642Z,17.12
2019-03-02T06:16:36.162Z,20.08
2019-03-02T06:18:04.450Z,23.83
2019-03-02T06:19:28.935Z,22.75
2019-03-02T06:20:54.439Z,24.20
2019-03-02T06:22:21.116Z,38.65
2019-03-02T06:23:47.119Z,34.08
2019-03-02T06:25:19.324Z,32.73
2019-03-02T06:26:40.002Z,35.03
2019-03-02T06:28:05.562Z,28.90
2019-03-02T06:29:32.810Z,26.73
2019-03-02T06:30:58.193Z,26.57
2019-03-02T06:32:25.898Z,31.60
2019-03-02T06:33:50.887Z,35.13
2019-03-02T06:35:16.411Z,26.12
2019-03-02T06:36:44.686Z,26.82
2019-03-02T06:38:18.214Z,25.40
2019-03-02T06:39:44.419Z,26.07
2019-03-02T06:41:16.435Z,30.02
2019-03-02T06:42:41.919Z,25.15
2019-03-02T06:44:07.270Z,22.77
2019-03-02T06:45:32.930Z,32.33
2019-03-02T06:46:59.183Z,30.68
2019-03-02T06:48:27.230Z,23.60
2019-03-02T06:49:53.171Z,33.63
2019-03-02T06:51:20.059Z,34.55
2019-03-02T06:52:45.836Z,38.58
2019-03-02T06:54:12.971Z,19.55
2019-03-02T06:55:38.619Z,20.10
2019-03-02T06:57:04.192Z,19.30
2019-03-02T06:58:29.807Z,19.80
2019-03-02T06:59:55.333Z,20.05
2019-03-02T07:01:24.674Z,33.63
2019-03-02T07:02:48.174Z,17.02
2019-03-02T07:04:13.732Z,20.03
2019-03-02T07:05:39.368Z,21.55
2019-03-02T07:07:06.196Z,24.35
2019-03-02T07:08:32.758Z,18.05
2019-03-02T07:09:58.925Z,25.87
2019-03-02T07:11:24.480Z,17.87
2019-03-02T07:12:50.175Z,16.43
2019-03-02T07:14:16.227Z,25.48
2019-03-02T07:15:43.689Z,16.32
2019-03-02T07:17:09.074Z,16.85
2019-03-02T07:18:42.528Z,17.37
2019-03-02T07:20:17.342Z,17.73
2019-03-02T07:21:42.978Z,16.75
2019-03-02T07:23:08.456Z,16.15
2019-03-02T07:24:33.982Z,16.37
2019-03-02T07:25:59.548Z,16.15
2019-03-02T07:27:26.388Z,19.52
2019-03-02T07:28:52.241Z,15.38
2019-03-02T07:30:17.902Z,17.20
2019-03-02T07:31:43.461Z,14.47
2019-03-02T07:33:08.954Z,16.60
2019-03-02T07:34:34.481Z,19.17
2019-03-02T07:36:00.073Z,24.92
2019-03-02T07:37:25.725Z,19.17
2019-03-02T07:38:53.006Z,14.90
2019-03-02T07:40:18.499Z,22.13
2019-03-02T07:41:44.043Z,17.40
2019-03-02T07:43:09.897Z,17.20
2019-03-02T07:44:36.162Z,16.97
2019-03-02T07:46:01.748Z,23.30
2019-03-02T07:47:27.282Z,24.50
2019-03-02T07:48:52.802Z,21.48
2019-03-02T07:50:21.871Z,16.90
2019-03-02T07:51:45.756Z,19.90
2019-03-02T07:53:11.349Z,15.05
2019-03-02T07:54:38.766Z,21.25
2019-03-02T07:56:04.189Z,21.40
2019-03-02T07:57:29.795Z,25.30
2019-03-02T07:58:55.822Z,19.98
2019-03-02T08:00:21.629Z,19.45
2019-03-02T08:01:48.973Z,20.68
2019-03-02T08:03:14.586Z,23.02
2019-03-02T08:04:40.058Z,19.40
2019-03-02T08:06:05.718Z,19.67
2019-03-02T08:07:34.040Z,21.85
2019-03-02T08:08:58.378Z,21.10
2019-03-02T08:10:24.094Z,18.82
2019-03-02T08:11:49.913Z,21.75
2019-03-02T08:13:18.274Z,21.47
2019-03-02T08:14:44.462Z,18.50
2019-03-02T08:16:10.965Z,22.82
2019-03-02T08:17:36.438Z,21.70
2019-03-02T08:19:03.962Z,18.77
2019-03-02T08:20:29.251Z,19.93
2019-03-02T08:21:54.860Z,18.07
2019-03-02T08:23:20.359Z,20.70
2019-03-02T08:24:45.930Z,18.50
2019-03-02T08:26:11.489Z,24.50
2019-03-02T08:27:37.042Z,21.23
2019-03-02T08:29:05.352Z,23.43
2019-03-02T08:30:33.410Z,24.70
2019-03-02T08:31:58.146Z,27.90
2019-03-02T08:33:23.626Z,26.57
2019-03-02T08:34:49.126Z,21.57
2019-03-02T08:36:17.013Z,23.57
2019-03-02T08:37:41.986Z,21.80
2019-03-02T08:39:10.764Z,23.17
2019-03-02T08:40:35.347Z,25.97
2019-03-02T08:42:00.926Z,16.53
2019-03-02T08:43:26.466Z,21.73
2019-03-02T08:44:54.025Z,23.83
2019-03-02T08:46:19.088Z,20.30
2019-03-02T08:47:44.782Z,20.80
2019-03-02T08:49:10.286Z,18.13
2019-03-02T08:50:35.888Z,19.92
2019-03-02T08:52:01.514Z,26.63
2019-03-02T08:53:26.998Z,24.77
2019-03-02T08:54:53.635Z,22.83
2019-03-02T08:56:19.604Z,15.47
2019-03-02T08:57:45.246Z,20.03
2019-03-02T08:59:10.742Z,19.77
2019-03-02T09:00:39.012Z,17.83
2019-03-02T09:02:03.570Z,18.30
2019-03-02T09:03:30.336Z,22.13
2019-03-02T09:04:56.055Z,20.33
2019-03-02T09:06:21.570Z,16.43
2019-03-02T09:07:47.389Z,18.13
2019-03-02T09:09:12.917Z,17.20
2019-03-02T09:10:38.612Z,20.47
2019-03-02T09:12:04.227Z,22.00
2019-03-02T09:13:30.934Z,19.57
2019-03-02T09:14:56.999Z,22.40
2019-03-02T09:16:22.994Z,25.87
2019-03-02T09:17:50.082Z,20.60
2019-03-02T09:19:16.804Z,19.87
2019-03-02T09:20:43.043Z,20.20
2019-03-02T09:22:08.542Z,24.03
2019-03-02T09:23:36.144Z,18.60
2019-03-02T09:25:01.466Z,18.40
2019-03-02T09:26:26.929Z,22.70
2019-03-02T09:27:52.667Z,22.30
2019-03-02T09:29:18.167Z,17.17
2019-03-02T09:30:43.658Z,17.70
2019-03-02T09:32:10.969Z,23.70
2019-03-02T09:33:36.286Z,20.73
2019-03-02T09:35:01.937Z,21.70
2019-03-02T09:36:27.797Z,20.97
2019-03-02T09:37:54.801Z,22.13
2019-03-02T09:39:20.333Z,22.40
2019-03-02T09:40:45.979Z,19.43
2019-03-02T09:42:13.454Z,18.83
2019-03-02T09:43:39.190Z,18.60
2019-03-02T09:45:07.737Z,21.53
2019-03-02T09:46:32.713Z,20.83
2019-03-02T09:47:58.233Z,20.90
2019-03-02T09:49:23.793Z,26.53
2019-03-02T09:50:49.401Z,25.33
2019-03-02T09:52:15.007Z,24.30
2019-03-02T09:53:40.613Z,26.73
2019-03-02T09:55:06.462Z,20.70
2019-03-02T09:56:32.124Z,20.77
2019-03-02T09:57:57.658Z,23.90
2019-03-02T09:59:23.195Z,23.00
2019-03-02T10:00:48.693Z,22.10
2019-03-02T10:02:15.583Z,25.83
2019-03-02T10:03:41.283Z,29.03
2019-03-02T10:05:07.113Z,27.40
2019-03-02T10:06:32.650Z,29.33
2019-03-02T10:07:58.243Z,32.73
2019-03-02T10:09:24.935Z,21.33
2019-03-02T10:10:50.719Z,21.30
2019-03-02T10:12:16.231Z,24.20
2019-03-02T10:13:41.758Z,21.50
2019-03-02T10:15:08.924Z,23.40
2019-03-02T10:16:34.526Z,18.30
2019-03-02T10:18:00.219Z,25.13
2019-03-02T10:19:28.982Z,20.43
2019-03-02T10:20:53.083Z,28.40
2019-03-02T10:22:19.761Z,21.07
2019-03-02T10:23:45.802Z,19.47
2019-03-02T10:25:11.722Z,21.70
2019-03-02T10:26:39.816Z,21.77
2019-03-02T10:28:05.031Z,15.60
2019-03-02T10:29:32.299Z,38.50
2019-03-02T10:30:57.878Z,20.53
2019-03-02T10:32:23.422Z,26.57
2019-03-02T10:33:48.926Z,18.53
2019-03-02T10:35:17.169Z,20.47
2019-03-02T10:36:42.514Z,17.90
2019-03-02T10:38:08.134Z,16.00
2019-03-02T10:39:33.742Z,23.17
2019-03-02T10:40:59.262Z,22.97
2019-03-02T10:42:24.760Z,23.73
2019-03-02T10:43:50.292Z,24.00
2019-03-02T10:45:17.492Z,23.77
2019-03-02T10:46:43.154Z,23.43
2019-03-02T10:48:08.770Z,23.97
2019-03-02T10:49:34.279Z,24.70
2019-03-02T10:51:02.306Z,23.10
2019-03-02T10:52:27.017Z,16.90
2019-03-02T10:53:55.814Z,29.73
2019-03-02T10:55:20.821Z,23.43
2019-03-02T10:56:46.322Z,21.97
2019-03-02T10:58:11.910Z,27.83
2019-03-02T10:59:37.453Z,22.05
2019-03-02T11:01:03.239Z,21.70
2019-03-02T11:02:30.161Z,25.27
2019-03-02T11:03:55.806Z,21.63
2019-03-02T11:05:43.020Z,26.80
2019-03-02T11:07:20.943Z,18.70
2019-03-02T11:09:22.538Z,25.57
2019-03-02T11:10:55.792Z,28.20
2019-03-02T11:12:35.237Z,23.17
2019-03-02T11:14:18.297Z,30.70
2019-03-02T11:16:20.711Z,55.80
2019-03-02T11:18:10.827Z,26.53
2019-03-02T11:19:53.799Z,37.80
2019-03-02T11:21:38.111Z,27.43
2019-03-02T11:23:15.700Z,28.77
2019-03-02T11:24:54.419Z,29.63
2019-03-02T11:26:28.115Z,29.17
2019-03-02T11:28:11.169Z,26.40
2019-03-02T11:29:56.089Z,18.10
2019-03-02T11:31:32.245Z,19.23
2019-03-02T11:33:15.016Z,22.60
2019-03-02T11:35:10.459Z,20.93
2019-03-02T11:37:09.284Z,23.83
2019-03-02T11:38:52.188Z,25.60
2019-03-02T11:40:54.612Z,22.80
2019-03-02T11:42:45.781Z,24.90
2019-03-02T11:44:19.084Z,21.67
2019-03-02T11:46:05.963Z,19.77
2019-03-02T11:47:48.719Z,22.57
2019-03-02T11:49:39.365Z,22.93
2019-03-02T11:51:18.278Z,27.53
2019-03-02T11:53:05.217Z,25.73
2019-03-02T11:55:00.962Z,29.83
2019-03-02T11:56:46.638Z,20.93
2019-03-02T11:58:36.894Z,22.47
2019-03-02T12:00:21.425Z,17.33
2019-03-02T12:02:04.515Z,26.33
2019-03-02T12:03:51.512Z,21.03
2019-03-02T12:05:34.288Z,21.30
2019-03-02T12:07:17.155Z,31.87
2019-03-02T12:09:04.014Z,20.30
2019-03-02T12:10:51.533Z,18.40
2019-03-02T12:12:38.669Z,20.13
2019-03-02T12:14:19.802Z,20.70
2019-03-02T12:16:09.916Z,20.90
2019-03-02T12:17:47.740Z,18.70
2019-03-02T12:19:40.832Z,17.47
2019-03-02T12:21:37.255Z,27.13
2019-03-02T12:23:39.510Z,21.13
2019-03-02T12:25:27.301Z,16.23
2019-03-02T12:27:10.238Z,17.30
2019-03-02T12:29:13.433Z,20.53
2019-03-02T12:30:55.797Z,25.90
2019-03-02T12:32:40.328Z,24.23
2019-03-02T12:34:19.181Z,17.50
2019-03-02T12:35:53.535Z,18.40
2019-03-02T12:37:43.744Z,20.17
2019-03-02T12:39:23.989Z,22.57
2019-03-02T12:41:15.722Z,27.63
2019-03-02T12:42:57.551Z,18.13
2019-03-02T12:44:41.892Z,15.03
2019-03-02T12:46:29.418Z,25.03
2019-03-02T12:48:11.591Z,18.07
2019-03-02T12:49:54.359Z,14.37
2019-03-02T12:51:29.086Z,18.30
2019-03-02T12:53:16.006Z,16.33
2019-03-02T12:54:59.116Z,20.73
2019-03-02T12:56:42.240Z,10.67
2019-03-02T12:58:25.471Z,22.80
2019-03-02T13:00:05.977Z,19.67
2019-03-02T13:01:53.093Z,9.13
2019-03-02T13:03:55.365Z,10.30
2019-03-02T13:05:38.315Z,15.20
2019-03-02T13:07:15.576Z,17.53
2019-03-02T13:08:49.293Z,25.93
2019-03-02T13:10:40.861Z,19.20
2019-03-02T13:12:18.280Z,26.40
2019-03-02T13:13:57.899Z,31.10
2019-03-02T13:15:42.139Z,22.13
2019-03-02T13:17:33.099Z,18.53
2019-03-02T13:19:26.747Z,16.13
2019-03-02T13:21:20.381Z,17.27
2019-03-02T13:23:06.698Z,21.73
2019-03-02T13:24:57.920Z,25.47
2019-03-02T13:26:40.746Z,21.80
2019-03-02T13:28:40.115Z,25.20
2019-03-02T13:30:13.938Z,26.70
2019-03-02T13:31:56.878Z,23.73
2019-03-02T13:33:41.854Z,19.53
2019-03-02T13:35:23.205Z,21.00
2019-03-02T13:37:21.291Z,20.30
2019-03-02T13:39:06.481Z,19.83
2019-03-02T13:40:52.737Z,16.80
2019-03-02T13:42:29.427Z,21.67
2019-03-02T13:44:15.922Z,12.13
2019-03-02T13:45:51.850Z,19.70
2019-03-02T13:47:35.257Z,11.60
2019-03-02T13:49:37.278Z,21.17
2019-03-02T13:51:30.017Z,11.60
2019-03-02T13:53:19.945Z,19.03
2019-03-02T13:55:06.102Z,17.87
2019-03-02T13:56:53.518Z,12.37
2019-03-02T13:58:40.986Z,15.40
2019-03-02T14:00:35.793Z,15.50
2019-03-02T14:02:18.554Z,18.37
2019-03-02T14:04:14.896Z,18.63
2019-03-02T14:06:04.987Z,12.13
2019-03-02T14:07:46.785Z,13.60
2019-03-02T14:09:22.822Z,13.90
2019-03-02T14:11:13.074Z,13.53
2019-03-02T14:13:00.389Z,11.50
2019-03-02T14:14:53.830Z,19.50
2019-03-02T14:16:37.856Z,20.13
2019-03-02T14:18:28.458Z,21.47
2019-03-02T14:20:09.808Z,19.93
2019-03-02T14:21:59.953Z,15.23
2019-03-02T14:23:35.642Z,17.37
2019-03-02T14:25:32.176Z,14.70
2019-03-02T14:27:22.581Z,13.13
2019-03-02T14:28:56.217Z,14.27
2019-03-02T14:30:46.686Z,16.20
2019-03-02T14:32:37.084Z,21.63
2019-03-02T14:34:20.645Z,9.77
2019-03-02T14:36:15.344Z,15.37
2019-03-02T14:37:59.781Z,16.60
2019-03-02T14:39:47.047Z,15.13
2019-03-02T14:41:24.550Z,15.63
2019-03-02T14:43:15.772Z,10.43
2019-03-02T14:44:59.689Z,22.20
2019-03-02T14:46:32.785Z,15.90
2019-03-02T14:48:17.214Z,16.30
2019-03-02T14:49:54.957Z,11.37
2019-03-02T14:51:42.298Z,11.87
2019-03-02T14:53:25.238Z,27.93
2019-03-02T14:54:57.951Z,17.87
2019-03-02T14:56:49.257Z,16.83
2019-03-02T14:58:34.095Z,11.20
2019-03-02T15:00:08.692Z,17.40
2019-03-02T15:01:53.130Z,17.33
2019-03-02T15:03:38.942Z,16.20
2019-03-02T15:05:29.247Z,11.57
2019-03-02T15:07:25.495Z,22.60
2019-03-02T15:09:13.372Z,9.47
2019-03-02T15:10:56.507Z,8.00
2019-03-02T15:12:43.618Z,11.40
2019-03-02T15:14:38.546Z,12.70
2019-03-02T15:16:20.225Z,16.27
2019-03-02T15:18:10.687Z,18.10
2019-03-02T15:19:56.196Z,18.63
2019-03-02T15:21:32.149Z,14.27
2019-03-02T15:23:19.310Z,12.03
2019-03-02T15:24:53.210Z,15.50
2019-03-02T15:26:31.309Z,15.80
2019-03-02T15:28:06.448Z,15.60
2019-03-02T15:29:50.382Z,12.67
2019-03-02T15:31:45.770Z,15.63
2019-03-02T15:33:37.955Z,10.00
2019-03-02T15:35:30.184Z,14.10
2019-03-02T15:37:13.940Z,9.00
2019-03-02T15:38:58.375Z,16.00
2019-03-02T15:41:01.195Z,16.80
2019-03-02T15:42:54.320Z,12.97
2019-03-02T15:44:32.914Z,16.80
2019-03-02T15:46:15.928Z,17.67
2019-03-02T15:47:54.583Z,7.50
2019-03-02T15:49:40.237Z,13.67
2019-03-02T15:51:21.661Z,9.87
2019-03-02T15:52:55.623Z,23.77
2019-03-02T15:54:39.909Z,14.10
2019-03-02T15:56:30.394Z,7.97
2019-03-02T15:58:05.694Z,15.03
2019-03-02T15:59:48.502Z,17.47
2019-03-02T16:01:27.298Z,13.40
2019-03-02T16:03:19.126Z,10.53
2019-03-02T16:04:50.532Z,11.30
2019-03-02T16:06:27.756Z,13.67
2019-03-02T16:08:10.613Z,13.93
2019-03-02T16:09:55.231Z,19.23
2019-03-02T16:11:42.746Z,17.40
2019-03-02T16:13:29.922Z,21.13
2019-03-02T16:15:23.418Z,10.23
2019-03-02T16:17:10.478Z,12.73
2019-03-02T16:18:54.807Z,11.47
2019-03-02T16:20:42.593Z,10.00
2019-03-02T16:22:18.533Z,14.07
2019-03-02T16:24:02.266Z,10.20
2019-03-02T16:25:52.455Z,14.40
2019-03-02T16:27:39.806Z,14.63
2019-03-02T16:29:44.203Z,12.37
2019-03-02T16:31:41.265Z,13.17
2019-03-02T16:33:38.118Z,13.67
2019-03-02T16:35:25.857Z,17.40
2019-03-02T16:37:01.363Z,10.97
2019-03-02T16:38:48.035Z,13.93
2019-03-02T16:40:31.049Z,10.73
2019-03-02T16:42:30.433Z,7.23
2019-03-02T16:44:13.546Z,13.37
2019-03-02T16:45:56.682Z,10.00
2019-03-02T16:47:30.477Z,11.07
2019-03-02T16:49:12.314Z,18.50
2019-03-02T16:51:05.542Z,16.67
2019-03-02T16:52:48.474Z,11.20
2019-03-02T16:54:33.364Z,21.27
2019-03-02T16:56:21.227Z,11.40
2019-03-02T16:58:13.981Z,13.50
2019-03-02T16:59:57.084Z,19.57
2019-03-02T17:01:41.523Z,14.80
2019-03-02T17:03:26.706Z,19.10
2019-03-02T17:05:07.449Z,15.70
2019-03-02T17:06:54.942Z,16.00
2019-03-02T17:08:48.419Z,18.23
2019-03-02T17:10:31.985Z,11.90
2019-03-02T17:12:19.374Z,27.07
2019-03-02T17:14:10.190Z,12.90
2019-03-02T17:15:55.061Z,10.10
2019-03-02T17:17:49.016Z,12.17
2019-03-02T17:19:24.465Z,16.70
2019-03-02T17:21:20.467Z,15.33
2019-03-02T17:23:05.391Z,18.30
2019-03-02T17:24:50.148Z,13.20
2019-03-02T17:26:31.836Z,16.93
2019-03-02T17:28:31.647Z,17.50
2019-03-02T17:30:17.643Z,16.30
2019-03-02T17:32:04.502Z,11.50
2019-03-02T17:34:03.599Z,13.77
2019-03-02T17:35:45.567Z,13.50
2019-03-02T17:37:32.744Z,11.77
2019-03-02T17:39:15.729Z,20.13
2019-03-02T17:40:54.405Z,16.67
2019-03-02T17:42:41.503Z,10.73
2019-03-02T17:44:28.846Z,16.20
2019-03-02T17:46:14.254Z,25.80
2019-03-02T17:47:53.811Z,12.30
2019-03-02T17:49:47.368Z,15.13
2019-03-02T17:51:40.519Z,23.90
2019-03-02T17:53:23.168Z,11.60
2019-03-02T17:55:04.605Z,32.63
2019-03-02T17:56:49.010Z,14.90
2019-03-02T17:58:42.247Z,40.73
2019-03-02T18:00:29.789Z,22.13
2019-03-02T18:02:20.439Z,22.77
2019-03-02T18:04:05.216Z,10.93
2019-03-02T18:05:57.188Z,15.30
2019-03-02T18:07:56.408Z,17.93
2019-03-02T18:09:41.516Z,21.87
2019-03-02T18:11:18.559Z,18.90
2019-03-02T18:13:14.238Z,18.50
2019-03-02T18:14:57.986Z,15.67
2019-03-02T18:16:41.295Z,17.70
2019-03-02T18:18:08.082Z,21.40
2019-03-02T18:19:33.541Z,13.47
2019-03-02T18:20:59.198Z,20.63
2019-03-02T18:22:24.814Z,16.93
2019-03-02T18:23:51.715Z,26.53
2019-03-02T18:25:17.354Z,25.00
2019-03-02T18:26:42.973Z,15.90
2019-03-02T18:28:14.070Z,14.43
2019-03-02T18:29:38.782Z,21.63
2019-03-02T18:31:04.256Z,15.20
2019-03-02T18:32:30.091Z,21.17
2019-03-02T18:34:04.082Z,24.30
2019-03-02T18:35:29.630Z,21.93
2019-03-02T18:36:57.926Z,14.83
2019-03-02T18:38:23.415Z,20.83
2019-03-02T18:39:48.892Z,12.77
2019-03-02T18:41:16.460Z,28.23
2019-03-02T18:42:41.702Z,27.37
2019-03-02T18:44:07.441Z,16.23
2019-03-02T18:45:35.857Z,13.77
2019-03-02T18:47:00.022Z,12.03
2019-03-02T18:48:47.255Z,14.60
2019-03-02T18:50:32.664Z,19.20
2019-03-02T18:52:22.971Z,12.57
2019-03-02T18:53:48.520Z,9.53
2019-03-02T18:55:14.129Z,10.83
2019-03-02T18:56:39.846Z,12.13
2019-03-02T18:58:07.339Z,13.40
2019-03-02T18:59:32.837Z,12.33
2019-03-02T19:00:58.875Z,13.43
2019-03-02T19:02:24.517Z,13.50
2019-03-02T19:03:50.290Z,19.83
2019-03-02T19:05:15.882Z,19.60
2019-03-02T19:06:41.408Z,16.40
2019-03-02T19:08:07.084Z,11.30
2019-03-02T19:09:33.394Z,15.53
2019-03-02T19:10:58.962Z,14.80
2019-03-02T19:12:27.970Z,36.50
2019-03-02T19:13:51.598Z,11.77
2019-03-02T19:15:17.250Z,14.20
2019-03-02T19:16:42.973Z,14.13
2019-03-02T19:18:08.787Z,23.00
2019-03-02T19:19:34.278Z,18.83
2019-03-02T19:20:59.821Z,12.23
2019-03-02T19:22:25.322Z,15.27
2019-03-02T19:23:50.797Z,16.43
2019-03-02T19:25:16.775Z,22.83
2019-03-02T19:26:42.395Z,14.77
2019-03-02T19:28:08.017Z,16.03
2019-03-02T19:29:33.579Z,16.63
2019-03-02T19:30:59.099Z,15.10
2019-03-02T19:32:24.618Z,26.83
2019-03-02T19:33:50.118Z,15.70
2019-03-02T19:35:15.981Z,20.93
2019-03-02T19:36:41.444Z,17.80
2019-03-02T19:38:07.002Z,13.50
2019-03-02T19:39:32.871Z,20.00
2019-03-02T19:40:58.637Z,12.20
2019-03-02T19:42:24.254Z,19.80
2019-03-02T19:43:49.755Z,15.17
2019-03-02T19:45:15.620Z,12.40
2019-03-02T19:46:41.362Z,9.57
2019-03-02T19:48:07.079Z,12.00
2019-03-02T19:49:32.943Z,21.83
2019-03-02T19:50:58.569Z,23.77
2019-03-02T19:52:24.134Z,30.40
2019-03-02T19:53:49.931Z,16.60